sensor_id;sensor_type;location;lat;lon;timestamp;pressure;altitude;pressure_sealevel;temperature;humidity
19777;BME280;10047;42.490;26.012;2023-03-04T00:00:35;100344.34;;;5.50;100.00
19777;BME280;10047;42.490;26.012;2023-03-04T00:03:01;100398.91;;;5.96;100.00
19777;BME280;10047;42.490;26.012;2023-03-04T00:05:26;100328.38;;;5.38;100.00
19777;BME280;10047;42.490;26.012;2023-03-04T00:07:51;100329.19;;;5.59;100.00
19777;BME280;10047;42.490;26.012;2023-03-04T00:10:17;100320.81;;;5.48;100.00
19777;BME280;10047;42.490;26.012;2023-03-04T00:12:42;100372.03;;;5.68;100.00
19777;BME280;10047;42.490;26.012;2023-03-04T00:15:08;100305.72;;;5.19;100.00
19777;BME280;10047;42.490;26.012;2023-03-04T00:17:33;100371.16;;;5.83;100.00
19777;BME280;10047;42.490;26.012;2023-03-04T00:19:59;100280.53;;;5.28;100.00
19777;BME280;10047;42.490;26.012;2023-03-04T00:22:24;100314.94;;;5.36;100.00
19777;BME280;10047;42.490;26.012;2023-03-04T00:24:50;100257.88;;;5.07;100.00
19777;BME280;10047;42.490;26.012;2023-03-04T00:27:15;100319.16;;;5.40;100.00
19777;BME280;10047;42.490;26.012;2023-03-04T00:29:40;100344.31;;;5.65;100.00
19777;BME280;10047;42.490;26.012;2023-03-04T00:32:06;100352.69;;;5.75;100.00
19777;BME280;10047;42.490;26.012;2023-03-04T00:34:31;100351.81;;;5.80;100.00
19777;BME280;10047;42.490;26.012;2023-03-04T00:36:59;100289.78;;;5.22;100.00
19777;BME280;10047;42.490;26.012;2023-03-04T00:39:29;100360.28;;;5.63;100.00
19777;BME280;10047;42.490;26.012;2023-03-04T00:41:54;100305.72;;;5.27;100.00
19777;BME280;10047;42.490;26.012;2023-03-04T00:44:20;100360.28;;;5.57;100.00
19777;BME280;10047;42.490;26.012;2023-03-04T00:46:45;100268.78;;;5.03;100.00
19777;BME280;10047;42.490;26.012;2023-03-04T00:49:11;100362.81;;;5.60;100.00
19777;BME280;10047;42.490;26.012;2023-03-04T00:51:36;100273.00;;;4.82;100.00
19777;BME280;10047;42.490;26.012;2023-03-04T00:54:02;100322.53;;;5.26;100.00
19777;BME280;10047;42.490;26.012;2023-03-04T00:56:28;100362.84;;;5.28;100.00
19777;BME280;10047;42.490;26.012;2023-03-04T00:58:53;100297.34;;;4.71;100.00
19777;BME280;10047;42.490;26.012;2023-03-04T01:01:19;100287.25;;;4.68;100.00
19777;BME280;10047;42.490;26.012;2023-03-04T01:03:45;100294.00;;;4.76;100.00
19777;BME280;10047;42.490;26.012;2023-03-04T01:06:10;100291.44;;;4.60;100.00
19777;BME280;10047;42.490;26.012;2023-03-04T01:08:36;100350.25;;;5.02;100.00
19777;BME280;10047;42.490;26.012;2023-03-04T01:11:02;100356.97;;;4.94;100.00
19777;BME280;10047;42.490;26.012;2023-03-04T01:13:27;100301.53;;;4.42;100.00
19777;BME280;10047;42.490;26.012;2023-03-04T01:15:53;100304.91;;;4.63;100.00
19777;BME280;10047;42.490;26.012;2023-03-04T01:18:18;100341.00;;;4.92;100.00
19777;BME280;10047;42.490;26.012;2023-03-04T01:20:43;100236.06;;;4.26;100.00
19777;BME280;10047;42.490;26.012;2023-03-04T01:23:09;100342.69;;;4.69;100.00
19777;BME280;10047;42.490;26.012;2023-03-04T01:25:34;100355.28;;;4.81;100.00
19777;BME280;10047;42.490;26.012;2023-03-04T01:28:00;100343.50;;;4.95;100.00
19777;BME280;10047;42.490;26.012;2023-03-04T01:30:25;100353.59;;;5.12;100.00
19777;BME280;10047;42.490;26.012;2023-03-04T01:32:51;100340.97;;;4.83;100.00
19777;BME280;10047;42.490;26.012;2023-03-04T01:35:16;100328.41;;;4.65;100.00
19777;BME280;10047;42.490;26.012;2023-03-04T01:37:42;100290.56;;;4.30;100.00
19777;BME280;10047;42.490;26.012;2023-03-04T01:40:08;100361.16;;;4.71;100.00
19777;BME280;10047;42.490;26.012;2023-03-04T01:42:34;100364.50;;;4.84;100.00
19777;BME280;10047;42.490;26.012;2023-03-04T01:45:00;100356.09;;;4.74;100.00
19777;BME280;10047;42.490;26.012;2023-03-04T01:47:28;100311.59;;;4.48;100.00
19777;BME280;10047;42.490;26.012;2023-03-04T01:49:55;100356.94;;;4.70;100.00
19777;BME280;10047;42.490;26.012;2023-03-04T01:52:22;100262.06;;;4.18;100.00
19777;BME280;10047;42.490;26.012;2023-03-04T01:54:48;100359.44;;;4.69;100.00
19777;BME280;10047;42.490;26.012;2023-03-04T01:57:22;100344.34;;;4.63;100.00
19777;BME280;10047;42.490;26.012;2023-03-04T02:00:40;100353.56;;;4.76;100.00
19777;BME280;10047;42.490;26.012;2023-03-04T02:03:15;100361.97;;;4.75;100.00
19777;BME280;10047;42.490;26.012;2023-03-04T02:05:47;100265.38;;;4.12;100.00
19777;BME280;10047;42.490;26.012;2023-03-04T02:08:14;100262.81;;;3.91;100.00
19777;BME280;10047;42.490;26.012;2023-03-04T02:10:41;100351.88;;;4.63;100.00
19777;BME280;10047;42.490;26.012;2023-03-04T02:13:08;100326.72;;;4.55;100.00
19777;BME280;10047;42.490;26.012;2023-03-04T02:15:33;100305.69;;;4.33;100.00
19777;BME280;10047;42.490;26.012;2023-03-04T02:17:59;100375.41;;;4.63;100.00
19777;BME280;10047;42.490;26.012;2023-03-04T02:21:43;100380.44;;;4.69;100.00
19777;BME280;10047;42.490;26.012;2023-03-04T02:26:21;100293.00;;;3.97;100.00
19777;BME280;10047;42.490;26.012;2023-03-04T02:28:49;100389.69;;;4.88;100.00
19777;BME280;10047;42.490;26.012;2023-03-04T02:31:38;100377.09;;;4.75;100.00
19777;BME280;10047;42.490;26.012;2023-03-04T02:34:15;100330.78;;;4.11;100.00
19777;BME280;10047;42.490;26.012;2023-03-04T02:36:42;100328.31;;;4.29;100.00
19777;BME280;10047;42.490;26.012;2023-03-04T02:41:47;100381.22;;;4.58;100.00
19777;BME280;10047;42.490;26.012;2023-03-04T02:44:19;100387.06;;;4.40;100.00
19777;BME280;10047;42.490;26.012;2023-03-04T02:46:45;100327.47;;;4.25;100.00
19777;BME280;10047;42.490;26.012;2023-03-04T02:49:11;100348.47;;;4.44;100.00
19777;BME280;10047;42.490;26.012;2023-03-04T02:51:37;100339.25;;;4.43;100.00
19777;BME280;10047;42.490;26.012;2023-03-04T02:54:03;100393.00;;;4.59;100.00
19777;BME280;10047;42.490;26.012;2023-03-04T02:56:29;100328.31;;;4.27;100.00
19777;BME280;10047;42.490;26.012;2023-03-04T02:58:54;100346.00;;;4.46;100.00
19777;BME280;10047;42.490;26.012;2023-03-04T03:01:19;100370.41;;;4.90;100.00
19777;BME280;10047;42.490;26.012;2023-03-04T03:03:45;100372.91;;;4.78;100.00
19777;BME280;10047;42.490;26.012;2023-03-04T03:06:10;100332.53;;;4.31;100.00
19777;BME280;10047;42.490;26.012;2023-03-04T03:08:36;100324.06;;;4.13;100.00
19777;BME280;10047;42.490;26.012;2023-03-04T03:11:01;100316.47;;;3.98;100.00
19777;BME280;10047;42.490;26.012;2023-03-04T03:13:27;100319.59;;;3.50;100.00
19777;BME280;10047;42.490;26.012;2023-03-04T03:15:53;100311.41;;;3.86;100.00
19777;BME280;10047;42.490;26.012;2023-03-04T03:18:18;100317.19;;;3.68;100.00
19777;BME280;10047;42.490;26.012;2023-03-04T03:20:44;100329.00;;;3.87;100.00
19777;BME280;10047;42.490;26.012;2023-03-04T03:23:10;100348.41;;;4.17;100.00
19777;BME280;10047;42.490;26.012;2023-03-04T03:25:35;100362.63;;;4.07;100.00
19777;BME280;10047;42.490;26.012;2023-03-04T03:28:01;100372.75;;;4.19;100.00
19777;BME280;10047;42.490;26.012;2023-03-04T03:30:26;100362.75;;;4.44;100.00
19777;BME280;10047;42.490;26.012;2023-03-04T03:32:51;100378.69;;;4.41;100.00
19777;BME280;10047;42.490;26.012;2023-03-04T03:35:17;100367.78;;;4.56;100.00
19777;BME280;10047;42.490;26.012;2023-03-04T03:37:42;100365.28;;;4.45;100.00
19777;BME280;10047;42.490;26.012;2023-03-04T03:40:08;100293.91;;;4.19;100.00
19777;BME280;10047;42.490;26.012;2023-03-04T03:42:34;100295.53;;;4.03;100.00
19777;BME280;10047;42.490;26.012;2023-03-04T03:44:59;100327.53;;;4.45;100.00
19777;BME280;10047;42.490;26.012;2023-03-04T03:47:25;100341.78;;;4.60;100.00
19777;BME280;10047;42.490;26.012;2023-03-04T03:49:50;100334.25;;;4.66;100.00
19777;BME280;10047;42.490;26.012;2023-03-04T03:52:16;100352.69;;;4.47;100.00
19777;BME280;10047;42.490;26.012;2023-03-04T03:54:41;100361.13;;;4.61;100.00
19777;BME280;10047;42.490;26.012;2023-03-04T03:57:07;100357.72;;;4.54;100.00
19777;BME280;10047;42.490;26.012;2023-03-04T03:59:32;100409.00;;;4.79;100.00
19777;BME280;10047;42.490;26.012;2023-03-04T04:01:58;100385.47;;;4.63;100.00
19777;BME280;10047;42.490;26.012;2023-03-04T04:04:23;100382.09;;;4.55;100.00
19777;BME280;10047;42.490;26.012;2023-03-04T04:06:49;100396.41;;;4.71;100.00
19777;BME280;10047;42.490;26.012;2023-03-04T04:09:14;100407.28;;;4.70;100.00
19777;BME280;10047;42.490;26.012;2023-03-04T04:11:40;100417.34;;;4.72;100.00
19777;BME280;10047;42.490;26.012;2023-03-04T04:14:05;100413.22;;;4.99;100.00
19777;BME280;10047;42.490;26.012;2023-03-04T04:16:30;100410.66;;;4.80;100.00
19777;BME280;10047;42.490;26.012;2023-03-04T04:18:56;100331.69;;;4.35;100.00
19777;BME280;10047;42.490;26.012;2023-03-04T04:21:21;100356.00;;;4.35;100.00
19777;BME280;10047;42.490;26.012;2023-03-04T04:23:46;100352.66;;;4.33;100.00
19777;BME280;10047;42.490;26.012;2023-03-04T04:26:12;100375.28;;;4.28;100.00
19777;BME280;10047;42.490;26.012;2023-03-04T04:28:37;100410.63;;;4.65;100.00
19777;BME280;10047;42.490;26.012;2023-03-04T04:31:06;100406.44;;;4.59;100.00
19777;BME280;10047;42.490;26.012;2023-03-04T04:33:32;100350.94;;;4.23;100.00
19777;BME280;10047;42.490;26.012;2023-03-04T04:35:57;100417.34;;;4.66;100.00
19777;BME280;10047;42.490;26.012;2023-03-04T04:38:28;100402.25;;;4.70;100.00
19777;BME280;10047;42.490;26.012;2023-03-04T04:40:56;100346.75;;;4.25;100.00
19777;BME280;10047;42.490;26.012;2023-03-04T04:43:22;100408.94;;;4.64;100.00
19777;BME280;10047;42.490;26.012;2023-03-04T04:45:48;100418.19;;;4.65;100.00
19777;BME280;10047;42.490;26.012;2023-03-04T04:48:13;100363.56;;;4.44;100.00
19777;BME280;10047;42.490;26.012;2023-03-04T04:50:39;100405.63;;;4.78;100.00
19777;BME280;10047;42.490;26.012;2023-03-04T04:53:05;100357.75;;;4.50;100.00
19777;BME280;10047;42.490;26.012;2023-03-04T04:55:30;100423.28;;;4.98;100.00
19777;BME280;10047;42.490;26.012;2023-03-04T04:57:56;100419.91;;;4.82;100.00
19777;BME280;10047;42.490;26.012;2023-03-04T05:00:21;100408.97;;;4.68;100.00
19777;BME280;10047;42.490;26.012;2023-03-04T05:02:47;100415.66;;;4.60;100.00
19777;BME280;10047;42.490;26.012;2023-03-04T05:05:12;100399.78;;;4.88;100.00
19777;BME280;10047;42.490;26.012;2023-03-04T05:07:38;100351.84;;;4.46;100.00
19777;BME280;10047;42.490;26.012;2023-03-04T05:10:04;100406.47;;;4.79;100.00
19777;BME280;10047;42.490;26.012;2023-03-04T05:12:30;100303.94;;;4.11;100.00
19777;BME280;10047;42.490;26.012;2023-03-04T05:14:56;100408.16;;;4.93;100.00
19777;BME280;10047;42.490;26.012;2023-03-04T05:17:21;100402.31;;;5.02;100.00
19777;BME280;10047;42.490;26.012;2023-03-04T05:19:46;100413.22;;;5.05;100.00
19777;BME280;10047;42.490;26.012;2023-03-04T05:22:12;100406.53;;;5.09;100.00
19777;BME280;10047;42.490;26.012;2023-03-04T05:24:37;100408.22;;;5.13;100.00
19777;BME280;10047;42.490;26.012;2023-03-04T05:27:03;100356.94;;;4.85;100.00
19777;BME280;10047;42.490;26.012;2023-03-04T05:29:28;100418.28;;;5.02;100.00
19777;BME280;10047;42.490;26.012;2023-03-04T05:31:54;100424.16;;;5.39;100.00
19777;BME280;10047;42.490;26.012;2023-03-04T05:34:19;100363.69;;;5.00;100.00
19777;BME280;10047;42.490;26.012;2023-03-04T05:36:44;100376.28;;;5.04;100.00
19777;BME280;10047;42.490;26.012;2023-03-04T05:39:10;100382.13;;;4.85;100.00
19777;BME280;10047;42.490;26.012;2023-03-04T05:41:36;100434.19;;;4.95;100.00
19777;BME280;10047;42.490;26.012;2023-03-04T05:44:01;100442.63;;;4.99;100.00
19777;BME280;10047;42.490;26.012;2023-03-04T05:46:26;100328.41;;;4.65;100.00
19777;BME280;10047;42.490;26.012;2023-03-04T05:48:53;100370.38;;;4.78;100.00
19777;BME280;10047;42.490;26.012;2023-03-04T05:51:19;100424.16;;;5.25;100.00
19777;BME280;10047;42.490;26.012;2023-03-04T05:53:44;100367.03;;;4.87;100.00
19777;BME280;10047;42.490;26.012;2023-03-04T05:56:13;100339.28;;;4.64;100.00
19777;BME280;10047;42.490;26.012;2023-03-04T05:58:39;100423.31;;;5.25;100.00
19777;BME280;10047;42.490;26.012;2023-03-04T06:01:04;100417.47;;;5.31;100.00
19777;BME280;10047;42.490;26.012;2023-03-04T06:03:30;100377.97;;;5.17;100.00
19777;BME280;10047;42.490;26.012;2023-03-04T06:05:56;100446.84;;;5.57;100.00
19777;BME280;10047;42.490;26.012;2023-03-04T06:08:21;100445.16;;;5.73;100.00
19777;BME280;10047;42.490;26.012;2023-03-04T06:10:47;100389.72;;;5.35;100.00
19777;BME280;10047;42.490;26.012;2023-03-04T06:13:16;100444.34;;;5.60;100.00
19777;BME280;10047;42.490;26.012;2023-03-04T06:15:41;100398.97;;;5.50;100.00
19777;BME280;10047;42.490;26.012;2023-03-04T06:18:07;100447.66;;;5.79;100.00
19777;BME280;10047;42.490;26.012;2023-03-04T06:20:32;100428.38;;;5.52;100.00
19777;BME280;10047;42.490;26.012;2023-03-04T06:22:58;100429.22;;;5.41;100.00
19777;BME280;10047;42.490;26.012;2023-03-04T06:25:23;100447.69;;;5.71;100.00
19777;BME280;10047;42.490;26.012;2023-03-04T06:27:49;100434.16;;;6.27;100.00
19777;BME280;10047;42.490;26.012;2023-03-04T06:30:14;100404.81;;;5.59;100.00
19777;BME280;10047;42.490;26.012;2023-03-04T06:32:40;100458.59;;;6.00;100.00
19777;BME280;10047;42.490;26.012;2023-03-04T06:35:09;100454.44;;;5.86;100.00
19777;BME280;10047;42.490;26.012;2023-03-04T06:37:35;100451.88;;;5.81;100.00
19777;BME280;10047;42.490;26.012;2023-03-04T06:40:00;100396.44;;;5.50;100.00
19777;BME280;10047;42.490;26.012;2023-03-04T06:42:27;100450.19;;;5.80;100.00
19777;BME280;10047;42.490;26.012;2023-03-04T06:44:53;100453.56;;;6.00;100.00
19777;BME280;10047;42.490;26.012;2023-03-04T06:47:18;100462.84;;;5.85;100.00
19777;BME280;10047;42.490;26.012;2023-03-04T06:49:44;100396.41;;;5.71;100.00
19777;BME280;10047;42.490;26.012;2023-03-04T06:52:09;100456.09;;;6.08;100.00
19777;BME280;10047;42.490;26.012;2023-03-04T06:54:37;100462.78;;;6.12;100.00
19777;BME280;10047;42.490;26.012;2023-03-04T06:57:03;100430.84;;;6.03;100.00
19777;BME280;10047;42.490;26.012;2023-03-04T06:59:28;100396.38;;;5.81;100.00
19777;BME280;10047;42.490;26.012;2023-03-04T07:01:54;100424.06;;;6.16;100.00
19777;BME280;10047;42.490;26.012;2023-03-04T07:04:19;100450.97;;;6.20;100.00
19777;BME280;10047;42.490;26.012;2023-03-04T07:06:47;100450.13;;;6.23;100.00
19777;BME280;10047;42.490;26.012;2023-03-04T07:09:12;100409.75;;;6.23;100.00
19777;BME280;10047;42.490;26.012;2023-03-04T07:11:38;100404.78;;;6.03;100.00
19777;BME280;10047;42.490;26.012;2023-03-04T07:14:03;100447.63;;;6.17;100.00
19777;BME280;10047;42.490;26.012;2023-03-04T07:16:29;100407.16;;;6.45;100.00
19777;BME280;10047;42.490;26.012;2023-03-04T07:18:54;100419.91;;;6.04;100.00
19777;BME280;10047;42.490;26.012;2023-03-04T07:21:19;100444.94;;;6.62;100.00
19777;BME280;10047;42.490;26.012;2023-03-04T07:23:45;100393.72;;;6.37;100.00
19777;BME280;10047;42.490;26.012;2023-03-04T07:26:11;100398.66;;;6.61;100.00
19777;BME280;10047;42.490;26.012;2023-03-04T07:28:37;100391.97;;;6.48;100.00
19777;BME280;10047;42.490;26.012;2023-03-04T07:31:19;100429.88;;;6.47;100.00
19777;BME280;10047;42.490;26.012;2023-03-04T07:33:49;100392.00;;;6.44;100.00
19777;BME280;10047;42.490;26.012;2023-03-04T07:36:14;100439.94;;;6.50;100.00
19777;BME280;10047;42.490;26.012;2023-03-04T07:38:45;100368.53;;;6.22;100.00
19777;BME280;10047;42.490;26.012;2023-03-04T07:41:11;100435.53;;;6.89;100.00
19777;BME280;10047;42.490;26.012;2023-03-04T07:43:36;100430.19;;;7.33;100.00
19777;BME280;10047;42.490;26.012;2023-03-04T07:46:02;100439.69;;;7.03;100.00
19777;BME280;10047;42.490;26.012;2023-03-04T07:48:27;100428.28;;;6.19;100.00
19777;BME280;10047;42.490;26.012;2023-03-04T07:51:09;100443.34;;;6.41;100.00
19777;BME280;10047;42.490;26.012;2023-03-04T07:53:36;100426.31;;;6.82;100.00
19777;BME280;10047;42.490;26.012;2023-03-04T07:56:04;100386.19;;;6.25;100.00
19777;BME280;10047;42.490;26.012;2023-03-04T07:58:30;100422.09;;;9.23;100.00
19777;BME280;10047;42.490;26.012;2023-03-04T08:00:55;100423.31;;;8.99;100.00
19777;BME280;10047;42.490;26.012;2023-03-04T08:03:21;100394.91;;;9.31;100.00
19777;BME280;10047;42.490;26.012;2023-03-04T08:05:46;100436.47;;;9.74;100.00
19777;BME280;10047;42.490;26.012;2023-03-04T08:08:11;100433.91;;;9.76;100.00
19777;BME280;10047;42.490;26.012;2023-03-04T08:10:37;100435.16;;;8.99;100.00
19777;BME280;10047;42.490;26.012;2023-03-04T08:13:05;100436.25;;;8.07;100.00
19777;BME280;10047;42.490;26.012;2023-03-04T08:15:31;100343.13;;;8.91;100.00
19777;BME280;10047;42.490;26.012;2023-03-04T08:17:57;100420.66;;;8.44;100.00
19777;BME280;10047;42.490;26.012;2023-03-04T08:20:23;100368.16;;;7.84;100.00
19777;BME280;10047;42.490;26.012;2023-03-04T08:22:50;100413.50;;;8.73;100.00
19777;BME280;10047;42.490;26.012;2023-03-04T08:25:15;100408.22;;;9.43;100.00
19777;BME280;10047;42.490;26.012;2023-03-04T08:27:43;100366.19;;;9.29;100.00
19777;BME280;10047;42.490;26.012;2023-03-04T08:30:09;100380.72;;;9.68;100.00
19777;BME280;10047;42.490;26.012;2023-03-04T08:32:34;100370.19;;;9.42;100.00
19777;BME280;10047;42.490;26.012;2023-03-04T08:35:00;100417.25;;;9.59;100.00
19777;BME280;10047;42.490;26.012;2023-03-04T08:37:28;100426.97;;;8.79;100.00
19777;BME280;10047;42.490;26.012;2023-03-04T08:39:53;100414.66;;;9.12;100.00
19777;BME280;10047;42.490;26.012;2023-03-04T08:42:19;100379.88;;;8.62;100.00
19777;BME280;10047;42.490;26.012;2023-03-04T08:44:44;100353.13;;;9.50;100.00
19777;BME280;10047;42.490;26.012;2023-03-04T08:47:10;100399.72;;;8.93;100.00
19777;BME280;10047;42.490;26.012;2023-03-04T08:49:36;100407.56;;;10.27;100.00
19777;BME280;10047;42.490;26.012;2023-03-04T08:52:02;100343.19;;;9.38;100.00
19777;BME280;10047;42.490;26.012;2023-03-04T08:54:27;100357.75;;;9.76;100.00
19777;BME280;10047;42.490;26.012;2023-03-04T08:56:53;100390.91;;;10.55;100.00
19777;BME280;10047;42.490;26.012;2023-03-04T08:59:18;100373.28;;;10.84;100.00
19777;BME280;10047;42.490;26.012;2023-03-04T09:01:44;100348.72;;;9.12;100.00
19777;BME280;10047;42.490;26.012;2023-03-04T09:04:09;100335.84;;;8.69;100.00
19777;BME280;10047;42.490;26.012;2023-03-04T09:06:35;100342.47;;;8.16;100.00
19777;BME280;10047;42.490;26.012;2023-03-04T09:09:01;100381.97;;;8.93;100.00
19777;BME280;10047;42.490;26.012;2023-03-04T09:11:27;100376.19;;;8.85;100.00
19777;BME280;10047;42.490;26.012;2023-03-04T09:13:52;100387.06;;;8.29;100.00
19777;BME280;10047;42.490;26.012;2023-03-04T09:16:18;100379.47;;;8.90;100.00
19777;BME280;10047;42.490;26.012;2023-03-04T09:18:43;100390.47;;;8.90;100.00
19777;BME280;10047;42.490;26.012;2023-03-04T09:21:09;100380.84;;;9.12;100.00
19777;BME280;10047;42.490;26.012;2023-03-04T09:23:35;100322.06;;;8.86;100.00
19777;BME280;10047;42.490;26.012;2023-03-04T09:26:20;100376.28;;;8.79;100.00
19777;BME280;10047;42.490;26.012;2023-03-04T09:28:52;100322.97;;;8.22;100.00
19777;BME280;10047;42.490;26.012;2023-03-04T09:31:18;100374.91;;;8.56;100.00
19777;BME280;10047;42.490;26.012;2023-03-04T09:33:43;100384.63;;;8.85;100.00
19777;BME280;10047;42.490;26.012;2023-03-04T09:36:10;100304.81;;;9.09;100.00
19777;BME280;10047;42.490;26.012;2023-03-04T09:38:36;100323.19;;;9.23;100.00
19777;BME280;10047;42.490;26.012;2023-03-04T09:41:07;100374.69;;;9.26;100.00
19777;BME280;10047;42.490;26.012;2023-03-04T09:43:34;100360.31;;;9.27;100.00
19777;BME280;10047;42.490;26.012;2023-03-04T09:46:17;100340.22;;;9.13;100.00
19777;BME280;10047;42.490;26.012;2023-03-04T09:48:49;100368.09;;;9.16;100.00
19777;BME280;10047;42.490;26.012;2023-03-04T09:51:22;100368.88;;;9.67;100.00
19777;BME280;10047;42.490;26.012;2023-03-04T09:56:45;100361.47;;;9.58;100.00
19777;BME280;10047;42.490;26.012;2023-03-04T09:59:27;100350.97;;;9.76;100.00
19777;BME280;10047;42.490;26.012;2023-03-04T10:02:16;100350.50;;;9.56;100.00
19777;BME280;10047;42.490;26.012;2023-03-04T10:04:53;100296.53;;;9.45;100.00
19777;BME280;10047;42.490;26.012;2023-03-04T10:07:27;100355.75;;;9.91;100.00
19777;BME280;10047;42.490;26.012;2023-03-04T10:10:00;100339.81;;;10.27;100.00
19777;BME280;10047;42.490;26.012;2023-03-04T10:12:28;100338.00;;;9.90;100.00
19777;BME280;10047;42.490;26.012;2023-03-04T10:15:06;100323.00;;;10.59;100.00
19777;BME280;10047;42.490;26.012;2023-03-04T10:17:42;100320.50;;;10.19;100.00
19777;BME280;10047;42.490;26.012;2023-03-04T10:22:43;100320.44;;;10.22;100.00
19777;BME280;10047;42.490;26.012;2023-03-04T10:25:21;100256.66;;;9.93;100.00
19777;BME280;10047;42.490;26.012;2023-03-04T10:27:58;100295.81;;;10.62;100.00
19777;BME280;10047;42.490;26.012;2023-03-04T10:33:15;100311.72;;;10.70;100.00
19777;BME280;10047;42.490;26.012;2023-03-04T10:35:50;100307.88;;;10.16;100.00
19777;BME280;10047;42.490;26.012;2023-03-04T10:38:20;100293.81;;;10.39;100.00
19777;BME280;10047;42.490;26.012;2023-03-04T10:40:46;100255.66;;;9.60;100.00
19777;BME280;10047;42.490;26.012;2023-03-04T10:43:18;100258.81;;;9.71;100.00
19777;BME280;10047;42.490;26.012;2023-03-04T10:45:45;100233.94;;;9.88;100.00
19777;BME280;10047;42.490;26.012;2023-03-04T10:48:41;100275.66;;;10.16;100.00
19777;BME280;10047;42.490;26.012;2023-03-04T10:51:18;100269.84;;;10.50;100.00
19777;BME280;10047;42.490;26.012;2023-03-04T10:53:46;100222.41;;;10.13;100.00
19777;BME280;10047;42.490;26.012;2023-03-04T10:56:33;100265.78;;;10.03;100.00
19777;BME280;10047;42.490;26.012;2023-03-04T11:01:50;100269.97;;;9.64;100.00
19777;BME280;10047;42.490;26.012;2023-03-04T11:04:22;100215.25;;;9.91;100.00
19777;BME280;10047;42.490;26.012;2023-03-04T11:06:50;100200.13;;;9.45;100.00
19777;BME280;10047;42.490;26.012;2023-03-04T11:09:27;100243.38;;;10.21;100.00
19777;BME280;10047;42.490;26.012;2023-03-04T11:12:01;100234.06;;;10.22;100.00
19777;BME280;10047;42.490;26.012;2023-03-04T11:14:47;100228.31;;;10.14;100.00
19777;BME280;10047;42.490;26.012;2023-03-04T11:17:24;100226.75;;;10.45;100.00
19777;BME280;10047;42.490;26.012;2023-03-04T11:22:34;100172.25;;;9.83;100.00
19777;BME280;10047;42.490;26.012;2023-03-04T11:25:24;100205.81;;;10.35;100.00
19777;BME280;10047;42.490;26.012;2023-03-04T11:27:54;100157.91;;;10.19;100.00
19777;BME280;10047;42.490;26.012;2023-03-04T11:33:20;100212.78;;;10.95;100.00
19777;BME280;10047;42.490;26.012;2023-03-04T11:35:49;100207.22;;;10.81;100.00
19777;BME280;10047;42.490;26.012;2023-03-04T11:38:36;100157.81;;;10.57;100.00
19777;BME280;10047;42.490;26.012;2023-03-04T11:41:10;100195.75;;;10.65;100.00
19777;BME280;10047;42.490;26.012;2023-03-04T11:43:40;100154.28;;;9.92;100.00
19777;BME280;10047;42.490;26.012;2023-03-04T11:46:31;100197.09;;;10.79;100.00
19777;BME280;10047;42.490;26.012;2023-03-04T11:54:41;100183.84;;;10.99;100.00
19777;BME280;10047;42.490;26.012;2023-03-04T12:27:14;100156.66;;;11.01;100.00
19777;BME280;10047;42.490;26.012;2023-03-04T12:48:29;100140.28;;;11.97;100.00
19777;BME280;10047;42.490;26.012;2023-03-04T12:53:59;100079.63;;;11.54;100.00
19777;BME280;10047;42.490;26.012;2023-03-04T12:56:39;100134.09;;;11.78;100.00
19777;BME280;10047;42.490;26.012;2023-03-04T12:59:14;100101.50;;;12.15;100.00
19777;BME280;10047;42.490;26.012;2023-03-04T13:05:13;100119.47;;;11.84;100.00
19777;BME280;10047;42.490;26.012;2023-03-04T13:10:30;100054.34;;;11.48;100.00
19777;BME280;10047;42.490;26.012;2023-03-04T13:12:58;100123.00;;;11.79;100.00
19777;BME280;10047;42.490;26.012;2023-03-04T13:20:41;100051.28;;;11.66;100.00
19777;BME280;10047;42.490;26.012;2023-03-04T13:36:01;100089.41;;;11.68;100.00
19777;BME280;10047;42.490;26.012;2023-03-04T13:43:48;100018.28;;;11.62;100.00
19777;BME280;10047;42.490;26.012;2023-03-04T13:48:43;100077.88;;;11.84;100.00
19777;BME280;10047;42.490;26.012;2023-03-04T13:53:47;100025.69;;;11.69;100.00
19777;BME280;10047;42.490;26.012;2023-03-04T13:58:42;100070.72;;;12.21;100.00
19777;BME280;10047;42.490;26.012;2023-03-04T14:01:25;100069.19;;;11.89;100.00
19777;BME280;10047;42.490;26.012;2023-03-04T14:03:51;100001.25;;;11.90;100.00
19777;BME280;10047;42.490;26.012;2023-03-04T14:06:20;100022.63;;;11.86;100.00
19777;BME280;10047;42.490;26.012;2023-03-04T14:08:47;100048.00;;;12.63;100.00
19777;BME280;10047;42.490;26.012;2023-03-04T14:11:34;100036.44;;;12.77;100.00
19777;BME280;10047;42.490;26.012;2023-03-04T14:14:07;100022.94;;;12.51;100.00
19777;BME280;10047;42.490;26.012;2023-03-04T14:16:38;100038.91;;;12.56;100.00
19777;BME280;10047;42.490;26.012;2023-03-04T14:19:11;100023.69;;;12.30;100.00
19777;BME280;10047;42.490;26.012;2023-03-04T14:21:44;100022.31;;;12.44;100.00
19777;BME280;10047;42.490;26.012;2023-03-04T14:24:18;99967.09;;;12.20;100.00
19777;BME280;10047;42.490;26.012;2023-03-04T14:26:44;100027.63;;;12.13;100.00
19777;BME280;10047;42.490;26.012;2023-03-04T14:31:45;100030.22;;;12.37;100.00
19777;BME280;10047;42.490;26.012;2023-03-04T14:34:20;99975.41;;;12.25;100.00
19777;BME280;10047;42.490;26.012;2023-03-04T14:36:47;99978.50;;;13.02;100.00
19777;BME280;10047;42.490;26.012;2023-03-04T14:39:15;99976.47;;;14.16;100.00
19777;BME280;10047;42.490;26.012;2023-03-04T14:41:46;99954.16;;;14.39;100.00